Terminal Aerodrome Forecast
Issued by NWS Cleveland, OH

Home | Current Version | Previous Version | Text Only | Print | Product List | Glossary Off
Versions: 1 2 3 4 5 6 7 8 9 10 11 12 13 14 15 16 17 18 19

000
FTUS41 KCLE 191100
TAFMFD
TAF
KMFD 191135Z 1912/2012 09012KT P6SM BKN200
     FM191400 09012G22KT P6SM SCT060 OVC150
     FM191900 11015G25KT 5SM -SHRA SCT025 OVC060
     FM192100 12015G25KT 3SM -SHRA SCT010 OVC025
     FM200000 16015G25KT 6SM -SHRA VCTS OVC010CB
     FM200700 22015G22KT P6SM VCSH OVC030=

USA.gov is the U.S. government's official web portal to all federal, state and local government web resources and services.